• Join FlightAware (Why Join?)
  • Login
  • US Flag 
05:01AM EDT


 

Airport Tracker/Info


-or-


 

Live Flight TrackerFlight Track Log ✈ EJA396 ✈ 19-Jun-2013 ✈ KSFB - KIAD

Flight Track Log - Related Links

Times and Time Zones

All times are in EDT time to prevent confusion due to time zone crossing. See the EJA396 flight status page for this flight to view local times or setup timezone preferences in your user account.

Time Position Orientation Groundspeed Altitude Reporting Facility
EDT Latitude Longitude Course Direction KTS MPH feet Rate Location/Type
09:29AM 28.8000 -81.1500 74° East 240 276 3,600  Level Orlando TRACON
09:31AM 28.9072 -81.2347 325° Northwest 218 251 5,800 1,320 Climbing Jacksonville Center
09:32AM 28.9561 -81.3003 310° West 250 288 8,300 1,500 Climbing Jacksonville Center
09:33AM 29.0069 -81.3708 309° West 274 315 8,900 960 Climbing Jacksonville Center
09:34AM 29.0864 -81.3886 349° North 274 315 10,300 2,280 Climbing Jacksonville Center
09:35AM 29.1764 -81.3967 356° North 296 341 13,500 3,060 Climbing Jacksonville Center
09:36AM 29.2725 -81.4069 355° North 318 366 16,500 2,700 Climbing Jacksonville Center
09:37AM 29.3708 -81.4153 356° North 342 394 19,000 2,460 Climbing Jacksonville Center
09:38AM 29.4711 -81.4281 354° North 353 406 21,500 2,460 Climbing Jacksonville Center
09:39AM 29.5733 -81.4358 356° North 358 412 24,000 6,720 Climbing Jacksonville Center
09:40AM 29.6800 -81.4464 355° North 370 426 35,000 2,460 Climbing Jacksonville Center
09:41AM 29.7844 -81.4592 354° North 370 426 29,000 -2,040 Descending Jacksonville Center
09:42AM 29.8889 -81.4672 356° North 370 426 31,000 1,740 Climbing Jacksonville Center
09:43AM 29.9978 -81.4775 355° North 376 433 32,500 1,500 Climbing Jacksonville Center
09:44AM 30.1083 -81.4881 355° North 387 445 34,000 1,200 Climbing Jacksonville Center
09:45AM 30.2214 -81.4983 356° North 397 457 35,000 480 Climbing Jacksonville Center
09:46AM 30.3425 -81.5086 356° North 415 478 35,000  Level Jacksonville Center
09:47AM 30.4739 -81.4994 North 443 510 35,000  Level Jacksonville Center
09:48AM 30.6033 -81.4903 North 456 525 35,000  Level Jacksonville Center
09:49AM 30.7325 -81.4786 North 456 525 35,000 540 Level Jacksonville Center
09:50AM 30.8558 -81.4722 North 456 525 36,100 1,260 Climbing Jacksonville Center
09:51AM 30.9808 -81.4606 North 456 525 37,600 1,620 Climbing Jacksonville Center
09:52AM 31.1122 -81.4342 10° North 445 512 39,400 1,500 Climbing Jacksonville Center
09:53AM 31.2178 -81.3742 26° Northeast 416 479 40,600 780 Climbing Jacksonville Center
09:54AM 31.3217 -81.3192 24° Northeast 410 472 41,000 180 Climbing Jacksonville Center
09:55AM 31.4192 -81.2614 27° Northeast 420 483 41,000  Level Jacksonville Center
09:56AM 31.5414 -81.1958 25° Northeast 431 496 41,000  Level Jacksonville Center
09:57AM 31.6553 -81.1303 26° Northeast 441 507 41,000  Level Jacksonville Center
09:58AM 31.7569 -81.0747 25° Northeast 448 516 41,000  Level Jacksonville Center
09:59AM 31.8811 -81.0061 25° Northeast 442 509 41,000  Level Jacksonville Center
10:00AM 31.9847 -80.9503 25° Northeast 447 514 41,000  Level Jacksonville Center
10:01AM 32.1089 -80.8789 26° Northeast 447 514 41,000  Level Jacksonville Center
10:02AM 32.2225 -80.8175 25° Northeast 447 514 41,000  Level Jacksonville Center
10:03AM 32.3261 -80.7611 25° Northeast 447 514 41,000  Level Jacksonville Center
10:04AM 32.4378 -80.6994 25° Northeast 441 507 41,000  Level Jacksonville Center
10:05AM 32.5536 -80.6400 23° Northeast 441 507 41,000  Level Jacksonville Center
10:06AM 32.6694 -80.5778 24° Northeast 441 507 41,000  Level Jacksonville Center
10:07AM 32.7850 -80.5156 24° Northeast 441 507 41,000  Level Jacksonville Center
10:08AM 32.9031 -80.4556 23° Northeast 446 513 41,000  Level Jacksonville Center
10:09AM 33.0308 -80.3828 26° Northeast 454 522 41,000  Level Jacksonville Center
10:10AM 33.1486 -80.3197 24° Northeast 455 524 41,000  Level Jacksonville Center
10:11AM 33.2603 -80.2669 22° Northeast 462 532 41,000  Level Jacksonville Center
10:12AM 33.3881 -80.1961 25° Northeast 462 532 41,000  Level Jacksonville Center
10:13AM 33.5058 -80.1328 24° Northeast 457 526 41,000  Level Jacksonville Center
10:14AM 33.6211 -80.0692 25° Northeast 457 526 41,000  Level Jacksonville Center
10:15AM 33.7408 -80.0028 25° Northeast 457 526 41,000  Level Jacksonville Center
10:16AM 33.8581 -79.9389 24° Northeast 457 526 41,000  Level Jacksonville Center
10:17AM 33.9778 -79.8750 24° Northeast 457 526 41,000  Level Jacksonville Center
10:18AM 34.0950 -79.8081 25° Northeast 457 526 41,000  Level Jacksonville Center
10:19AM 34.2144 -79.7436 24° Northeast 457 526 41,000  Level Jacksonville Center
10:21AM 34.4442 -79.6136 25° Northeast 473 544 41,000  Level Washington Center
10:22AM 34.5675 -79.5467 24° Northeast 473 544 41,000  Level Washington Center
10:23AM 34.6886 -79.4792 25° Northeast 473 544 41,000  Level Washington Center
10:24AM 34.8097 -79.4117 25° Northeast 473 544 41,000  Level Washington Center
10:25AM 34.9308 -79.3464 24° Northeast 468 539 41,000  Level Washington Center
10:26AM 35.0497 -79.2783 25° Northeast 468 539 41,000  Level Washington Center
10:27AM 35.1731 -79.2078 25° Northeast 468 539 41,000 -60 Level Washington Center
10:28AM 35.2961 -79.1394 24° Northeast 468 539 40,900 -540 Descending Washington Center
10:29AM 35.4192 -79.0711 24° Northeast 485 558 40,000 -1,080 Descending Washington Center
10:30AM 35.5506 -78.9978 24° Northeast 467 537 38,800 -1,560 Descending Washington Center
10:31AM 35.6736 -78.9286 25° Northeast 467 537 37,000 -1,860 Descending Washington Center
10:32AM 35.7986 -78.8547 26° Northeast 472 543 35,100 -1,560 Descending Washington Center
10:33AM 35.9194 -78.7853 25° Northeast 477 549 34,000 -1,620 Descending Washington Center
10:34AM 36.0403 -78.7131 26° Northeast 472 543 32,000 -2,100 Descending Washington Center
10:35AM 36.1631 -78.6433 25° Northeast 472 543 29,800 -2,340 Descending Washington Center
10:36AM 36.2881 -78.5683 26° Northeast 477 549 27,400 -1,440 Descending Washington Center
10:37AM 36.4108 -78.4981 25° Northeast 477 549 27,000 -240 Descending Washington Center
10:38AM 36.5336 -78.4250 26° Northeast 477 549 27,000  Level Washington Center
10:39AM 36.6583 -78.3519 25° Northeast 483 556 27,000  Level Washington Center
10:40AM 36.7706 -78.2833 26° Northeast 483 556 27,000  Level Washington Center
10:41AM 36.8931 -78.2122 25° Northeast 483 556 27,000 -60 Level Washington Center
10:42AM 37.0178 -78.1358 26° Northeast 494 568 26,900 -660 Descending Washington Center
10:43AM 37.1425 -78.0619 25° Northeast 489 563 25,700 -1,380 Descending Washington Center
10:44AM 37.2608 -77.9900 26° Northeast 478 550 24,200 -1,560 Descending Washington Center
10:45AM 37.3747 -77.9203 26° Northeast 465 535 22,700 -1,140 Descending Washington Center
10:46AM 37.4867 -77.8531 25° Northeast 454 522 22,000 -360 Descending Washington Center
10:47AM 37.6006 -77.7858 25° Northeast 449 517 22,000 -600 Level Washington Center
10:48AM 37.7122 -77.7208 25° Northeast 444 511 20,900 -1,980 Descending Washington Center
10:49AM 37.8156 -77.6606 25° Northeast 433 498 18,100 -2,640 Descending Washington Center
10:50AM 37.9144 -77.6000 26° Northeast 405 466 15,600 -2,340 Descending Washington Center
10:51AM 38.0092 -77.5447 25° Northeast 390 449 13,500 -2,040 Descending Washington Center
10:52AM 38.0997 -77.4969 23° Northeast 365 420 11,500 -1,800 Descending Washington Center
10:53AM 38.1881 -77.4436 25° Northeast 351 404 10,000 -960 Descending Washington Center
10:54AM 38.2597 -77.4031 24° Northeast 318 366 9,600 -900 Descending Washington Center
10:55AM 38.3186 -77.3675 25° Northeast 269 310 8,200 -1,440 Descending Washington Center
10:56AM 38.3775 -77.3397 20° North 237 273 6,700 -1,500 Descending Washington Center
10:57AM 38.4333 -77.3703 337° Northwest 202 232 5,200 -1,380 Descending Washington Center
10:58AM 38.4869 -77.4086 331° Northwest 202 232 4,000 -1,020 Descending Washington Center
10:59AM 38.5406 -77.4469 331° Northwest 212 244 3,200 -540 Descending Washington Center
11:00AM 38.5864 -77.4456 North 212 244 3,000 -120 Descending Washington Center
11:01AM 38.6500 -77.4333 North 174 200 3,000  Level Potomac TRACON
11:02AM 38.7000 -77.4333 360° North 176 203 3,000  Level Potomac TRACON
11:03AM 38.7500 -77.4333 360° North 171 197 3,000 -120 Level Potomac TRACON
11:04AM 38.8000 -77.4333 360° North 174 200 2,800 -600 Descending Potomac TRACON
11:05AM 38.8500 -77.4333 360° North 169 194 1,800 -900 Descending Potomac TRACON
11:06AM 38.8833 -77.4333 360° North 148 170 1,100 -720 Descending Potomac TRACON
11:07AM 38.9167 -77.4333 360° North 111 128 500 -600 Descending Potomac TRACON
11:09AM 38.9474 -77.4599 North  Level Estimated
11:16AM 38.9474 -77.4599 195° South  Level Estimated
11:17AM 38.9474 -77.4599 195° South  Level Estimated
11:18AM 38.9474 -77.4599 195° South  Level Estimated